createdAt,value
2022-11-10T00:01:14.536Z,13.10
2022-11-10T00:03:41.340Z,13.00
2022-11-10T00:06:09.709Z,13.10
2022-11-10T00:08:36.685Z,13.20
2022-11-10T00:11:08.696Z,13.00
2022-11-10T00:13:56.135Z,13.00
2022-11-10T00:16:41.528Z,12.90
2022-11-10T00:19:08.542Z,12.80
2022-11-10T00:21:36.646Z,12.70
2022-11-10T00:24:05.136Z,12.70
2022-11-10T00:26:31.968Z,12.80
2022-11-10T00:28:58.670Z,12.90
2022-11-10T00:31:28.525Z,12.80
2022-11-10T00:33:55.624Z,12.80
2022-11-10T00:36:22.311Z,12.90
2022-11-10T00:38:51.144Z,13.00
2022-11-10T00:41:17.848Z,13.10
2022-11-10T00:43:44.552Z,13.10
2022-11-10T00:46:11.262Z,13.20
2022-11-10T00:48:37.933Z,13.00
2022-11-10T00:51:05.484Z,13.10
2022-11-10T00:53:32.494Z,13.10
2022-11-10T00:55:59.115Z,13.20
2022-11-10T00:58:25.837Z,13.30
2022-11-10T01:01:02.097Z,13.40
2022-11-10T01:03:28.915Z,13.40
2022-11-10T01:05:55.621Z,13.40
2022-11-10T01:08:22.425Z,13.40
2022-11-10T01:10:49.131Z,13.30
2022-11-10T01:13:15.763Z,13.30
2022-11-10T01:15:43.394Z,13.30
2022-11-10T01:18:10.133Z,13.10
2022-11-10T01:20:36.850Z,12.90
2022-11-10T01:23:03.683Z,12.80
2022-11-10T01:25:30.362Z,12.70
2022-11-10T01:27:57.026Z,12.90
2022-11-10T01:30:23.786Z,12.90
2022-11-10T01:32:50.527Z,13.00
2022-11-10T01:35:17.268Z,13.10
2022-11-10T01:37:45.405Z,13.20
2022-11-10T01:40:12.467Z,13.20
2022-11-10T01:42:57.335Z,13.20
2022-11-10T01:45:24.030Z,12.90
2022-11-10T01:48:06.380Z,12.80
2022-11-10T01:50:37.657Z,12.80
2022-11-10T01:53:10.027Z,12.60
2022-11-10T01:55:41.436Z,12.50
2022-11-10T01:58:09.397Z,12.60
2022-11-10T02:00:36.393Z,12.50
2022-11-10T02:03:24.724Z,12.50
2022-11-10T02:05:51.782Z,12.50
2022-11-10T02:08:19.500Z,12.50
2022-11-10T02:10:46.135Z,12.60
2022-11-10T02:13:13.034Z,12.60
2022-11-10T02:15:39.703Z,12.70
2022-11-10T02:18:06.588Z,12.80
2022-11-10T02:20:33.589Z,12.90
2022-11-10T02:23:10.831Z,12.90
2022-11-10T02:25:37.917Z,12.80
2022-11-10T02:28:04.736Z,13.00
2022-11-10T02:30:31.423Z,12.90
2022-11-10T02:32:58.103Z,12.90
2022-11-10T02:35:24.801Z,12.90
2022-11-10T02:37:51.472Z,13.00
2022-11-10T02:40:18.182Z,13.10
2022-11-10T02:42:44.872Z,13.10
2022-11-10T02:45:11.541Z,13.00
2022-11-10T02:47:38.225Z,13.10
2022-11-10T02:50:05.131Z,13.20
2022-11-10T02:52:31.793Z,13.20
2022-11-10T02:54:58.700Z,13.20
2022-11-10T02:57:25.364Z,13.20
2022-11-10T02:59:52.005Z,13.10
2022-11-10T03:02:18.782Z,13.20
2022-11-10T03:04:45.434Z,12.90
2022-11-10T03:07:12.145Z,12.90
2022-11-10T03:09:39.289Z,13.00
2022-11-10T03:12:06.133Z,12.80
2022-11-10T03:14:32.790Z,12.90
2022-11-10T03:16:59.498Z,12.90
2022-11-10T03:19:26.164Z,12.90
2022-11-10T03:21:52.869Z,12.90
2022-11-10T03:24:19.766Z,12.80
2022-11-10T03:26:46.434Z,12.90
2022-11-10T03:29:13.102Z,12.90
2022-11-10T03:31:39.902Z,13.00
2022-11-10T03:34:06.579Z,13.00
2022-11-10T03:36:33.240Z,13.10
2022-11-10T03:38:59.981Z,13.10
2022-11-10T03:41:26.681Z,13.10
2022-11-10T03:43:53.431Z,13.10
2022-11-10T03:46:20.140Z,13.10
2022-11-10T03:48:52.938Z,13.10
2022-11-10T03:51:20.654Z,13.10
2022-11-10T03:53:47.405Z,13.10
2022-11-10T03:56:14.342Z,13.10
2022-11-10T03:58:41.304Z,13.10
2022-11-10T04:01:08.327Z,13.20
2022-11-10T04:03:35.005Z,13.10
2022-11-10T04:06:20.578Z,13.20
2022-11-10T04:08:59.388Z,13.30
2022-11-10T04:11:48.126Z,13.20
2022-11-10T04:14:34.374Z,13.30
2022-11-10T04:17:02.365Z,13.30
2022-11-10T04:19:29.539Z,13.30
2022-11-10T04:21:56.794Z,13.40
2022-11-10T04:24:23.537Z,13.40
2022-11-10T04:26:50.261Z,13.50
2022-11-10T04:29:19.061Z,13.50
2022-11-10T04:31:46.146Z,13.50
2022-11-10T04:34:14.915Z,13.50
2022-11-10T04:36:43.187Z,13.50
2022-11-10T04:39:10.306Z,13.40
2022-11-10T04:41:37.460Z,13.50
2022-11-10T04:44:04.570Z,13.40
2022-11-10T04:46:34.001Z,13.30
2022-11-10T04:49:01.259Z,13.30
2022-11-10T04:51:33.545Z,13.30
2022-11-10T04:54:00.641Z,13.20
2022-11-10T04:56:27.753Z,13.20
2022-11-10T04:58:55.084Z,13.10
2022-11-10T05:01:26.104Z,13.10
2022-11-10T05:03:53.787Z,13.10
2022-11-10T05:06:21.130Z,13.10
2022-11-10T05:08:48.546Z,13.00
2022-11-10T05:11:15.427Z,13.10
2022-11-10T05:13:43.085Z,13.10
2022-11-10T05:16:10.298Z,13.00
2022-11-10T05:18:37.199Z,12.90
2022-11-10T05:21:04.015Z,12.80
2022-11-10T05:23:39.909Z,12.70
2022-11-10T05:26:10.878Z,12.50
2022-11-10T05:28:38.961Z,12.50
2022-11-10T05:31:06.682Z,12.40
2022-11-10T05:33:34.649Z,12.40
2022-11-10T05:36:01.865Z,12.50
2022-11-10T05:38:28.978Z,12.50
2022-11-10T05:40:55.746Z,12.50
2022-11-10T05:43:22.920Z,12.60
2022-11-10T05:45:50.263Z,12.80
2022-11-10T05:48:17.016Z,13.00
2022-11-10T05:50:44.687Z,13.10
2022-11-10T05:53:12.049Z,13.20
2022-11-10T05:55:38.726Z,13.20
2022-11-10T05:58:05.384Z,13.10
2022-11-10T06:00:33.155Z,13.00
2022-11-10T06:03:05.967Z,13.20
2022-11-10T06:05:35.788Z,13.20
2022-11-10T06:08:04.349Z,13.30
2022-11-10T06:10:31.972Z,13.30
2022-11-10T06:12:59.134Z,13.40
2022-11-10T06:15:26.239Z,13.40
2022-11-10T06:17:53.666Z,13.40
2022-11-10T06:20:21.306Z,13.40
2022-11-10T06:23:01.918Z,13.40
2022-11-10T06:25:31.087Z,13.40
2022-11-10T06:27:58.422Z,13.30
2022-11-10T06:30:26.322Z,13.40
2022-11-10T06:32:53.965Z,13.40
2022-11-10T06:35:21.762Z,13.40
2022-11-10T06:38:02.597Z,13.50
2022-11-10T06:40:30.384Z,13.40
2022-11-10T06:42:57.686Z,13.50
2022-11-10T06:45:25.554Z,13.50
2022-11-10T06:48:07.371Z,13.50
2022-11-10T06:50:34.410Z,13.50
2022-11-10T06:53:01.448Z,13.40
2022-11-10T06:55:28.861Z,13.50
2022-11-10T06:57:55.900Z,13.50
2022-11-10T07:00:22.820Z,13.50
2022-11-10T07:03:02.219Z,13.50
2022-11-10T07:05:29.155Z,13.50
2022-11-10T07:07:55.927Z,13.60
2022-11-10T07:10:22.638Z,13.60
2022-11-10T07:12:55.210Z,13.60
2022-11-10T07:15:21.842Z,13.60
2022-11-10T07:17:48.781Z,13.60
2022-11-10T07:20:15.767Z,13.70
2022-11-10T07:22:42.414Z,13.70
2022-11-10T07:25:09.695Z,13.80
2022-11-10T07:27:36.362Z,13.90
2022-11-10T07:30:04.112Z,14.00
2022-11-10T07:32:30.992Z,14.00
2022-11-10T07:34:57.671Z,14.00
2022-11-10T07:37:24.453Z,13.90
2022-11-10T07:39:51.166Z,13.90
2022-11-10T07:42:17.850Z,13.90
2022-11-10T07:44:44.525Z,13.90
2022-11-10T07:47:11.211Z,14.00
2022-11-10T07:49:37.844Z,13.90
2022-11-10T07:52:04.531Z,13.90
2022-11-10T07:54:31.255Z,14.10
2022-11-10T07:56:57.903Z,14.20
2022-11-10T07:59:24.544Z,14.10
2022-11-10T08:01:51.309Z,14.30
2022-11-10T08:04:18.107Z,14.30
2022-11-10T08:06:44.936Z,14.30
2022-11-10T08:09:11.803Z,14.30
2022-11-10T08:11:38.568Z,14.30
2022-11-10T08:14:05.294Z,14.30
2022-11-10T08:16:32.524Z,14.30
2022-11-10T08:18:59.165Z,14.40
2022-11-10T08:21:25.802Z,14.40
2022-11-10T08:23:52.704Z,14.40
2022-11-10T08:26:19.390Z,14.50
2022-11-10T08:28:46.782Z,14.60
2022-11-10T08:31:13.510Z,14.60
2022-11-10T08:33:40.281Z,14.60
2022-11-10T08:36:07.292Z,14.60
2022-11-10T08:38:34.198Z,14.60
2022-11-10T08:41:00.975Z,14.70
2022-11-10T08:43:28.337Z,14.70
2022-11-10T08:45:58.380Z,14.60
2022-11-10T08:48:25.514Z,14.70
2022-11-10T08:50:52.318Z,14.70
2022-11-10T08:53:23.979Z,14.70
2022-11-10T08:55:52.170Z,14.70
2022-11-10T08:58:23.998Z,14.70
2022-11-10T09:00:51.621Z,14.70
2022-11-10T09:03:21.418Z,14.70
2022-11-10T09:05:55.058Z,14.70
2022-11-10T09:08:24.760Z,14.70
2022-11-10T09:10:51.557Z,14.70
2022-11-10T09:13:23.472Z,14.70
2022-11-10T09:15:53.003Z,14.70
2022-11-10T09:18:19.685Z,14.80
2022-11-10T09:20:46.454Z,14.80
2022-11-10T09:23:18.553Z,14.70
2022-11-10T09:25:51.847Z,14.80
2022-11-10T09:28:19.249Z,14.80
2022-11-10T09:30:47.828Z,14.80
2022-11-10T09:33:14.568Z,14.90
2022-11-10T09:35:41.938Z,14.90
2022-11-10T09:38:09.631Z,14.90
2022-11-10T09:41:03.859Z,14.80
2022-11-10T09:43:39.596Z,14.70
2022-11-10T09:46:27.506Z,14.70
2022-11-10T09:48:59.119Z,14.80
2022-11-10T09:51:32.984Z,14.80
2022-11-10T09:54:12.426Z,14.80
2022-11-10T09:56:39.239Z,14.90
2022-11-10T09:59:18.937Z,14.90
2022-11-10T10:01:48.923Z,15.00
2022-11-10T10:04:37.243Z,14.90
2022-11-10T10:07:20.794Z,15.00
2022-11-10T10:09:55.078Z,15.00
2022-11-10T10:12:57.235Z,15.00
2022-11-10T10:15:27.704Z,15.10
2022-11-10T10:18:07.855Z,15.10
2022-11-10T10:20:53.065Z,15.20
2022-11-10T10:24:12.569Z,15.30
2022-11-10T10:26:45.309Z,15.20
2022-11-10T10:29:21.323Z,15.20
2022-11-10T10:31:50.227Z,15.20
2022-11-10T10:34:28.898Z,15.20
2022-11-10T10:36:55.659Z,15.20
2022-11-10T10:39:44.266Z,15.20
2022-11-10T10:42:33.180Z,15.20
2022-11-10T10:45:18.866Z,15.20
2022-11-10T10:47:47.210Z,15.20
2022-11-10T10:50:26.955Z,15.20
2022-11-10T10:53:12.444Z,15.20
2022-11-10T10:55:45.291Z,15.40
2022-11-10T10:58:29.954Z,15.60
2022-11-10T11:01:07.502Z,15.50
2022-11-10T11:03:47.276Z,15.50
2022-11-10T11:06:17.156Z,15.60
2022-11-10T11:09:01.398Z,15.80
2022-11-10T11:11:33.320Z,15.90
2022-11-10T11:14:23.912Z,16.10
2022-11-10T11:16:51.762Z,16.30
2022-11-10T11:19:23.595Z,16.20
2022-11-10T11:21:59.239Z,16.20
2022-11-10T11:24:25.804Z,16.10
2022-11-10T11:27:14.344Z,16.20
2022-11-10T11:30:09.345Z,16.10
2022-11-10T11:33:13.979Z,16.00
2022-11-10T11:36:12.003Z,15.90
2022-11-10T11:38:53.030Z,16.00
2022-11-10T11:41:34.043Z,16.00
2022-11-10T11:44:03.797Z,16.00
2022-11-10T11:46:50.419Z,16.20
2022-11-10T11:49:22.921Z,16.20
2022-11-10T11:52:11.182Z,16.00
2022-11-10T11:55:07.494Z,15.80
2022-11-10T11:58:10.963Z,15.70
2022-11-10T12:00:50.895Z,15.40
2022-11-10T12:03:34.400Z,15.40
2022-11-10T12:06:19.060Z,15.60
2022-11-10T12:08:54.698Z,15.60
2022-11-10T12:11:29.634Z,15.60
2022-11-10T12:14:12.505Z,15.50
2022-11-10T12:16:41.353Z,15.70
2022-11-10T12:19:28.267Z,15.80
2022-11-10T12:22:04.280Z,15.90
2022-11-10T12:25:12.082Z,16.00
2022-11-10T12:27:44.175Z,16.30
2022-11-10T12:30:15.691Z,16.60
2022-11-10T12:33:01.474Z,16.70
2022-11-10T12:35:32.724Z,17.00
2022-11-10T12:38:02.982Z,16.80
2022-11-10T12:40:41.874Z,17.00
2022-11-10T12:43:25.322Z,17.00
2022-11-10T12:45:57.453Z,17.30
2022-11-10T12:48:25.796Z,17.40
2022-11-10T12:51:24.260Z,17.40
2022-11-10T12:53:51.536Z,17.20
2022-11-10T12:56:53.651Z,17.00
2022-11-10T12:59:20.301Z,17.00
2022-11-10T13:01:56.498Z,17.20
2022-11-10T13:04:23.672Z,17.70
2022-11-10T13:06:53.915Z,19.10
2022-11-10T13:09:36.523Z,20.80
2022-11-10T13:12:22.180Z,22.20
2022-11-10T13:14:49.819Z,23.50
2022-11-10T13:17:28.589Z,23.30
2022-11-10T13:20:05.226Z,22.70
2022-11-10T13:22:41.282Z,22.20
2022-11-10T13:25:36.631Z,21.10
2022-11-10T13:28:05.074Z,20.10
2022-11-10T13:30:46.619Z,19.60
2022-11-10T13:33:30.504Z,19.10
2022-11-10T13:35:58.448Z,18.60
2022-11-10T13:38:40.867Z,18.30
2022-11-10T13:41:24.011Z,18.00
2022-11-10T13:43:55.712Z,17.80
2022-11-10T13:46:43.019Z,17.50
2022-11-10T13:49:27.770Z,17.30
2022-11-10T13:52:25.352Z,17.10
2022-11-10T13:55:21.481Z,16.80
2022-11-10T13:58:04.796Z,16.70
2022-11-10T14:00:34.707Z,16.80
2022-11-10T14:03:25.512Z,16.80
2022-11-10T14:06:09.504Z,17.00
2022-11-10T14:08:41.165Z,17.10
2022-11-10T14:11:22.663Z,17.70
2022-11-10T14:13:59.074Z,19.10
2022-11-10T14:16:31.361Z,20.50
2022-11-10T14:19:30.259Z,21.20
2022-11-10T14:22:02.849Z,21.30
2022-11-10T14:24:48.611Z,20.90
2022-11-10T14:27:23.625Z,20.10
2022-11-10T14:30:04.696Z,19.00
2022-11-10T14:32:31.552Z,18.40
2022-11-10T14:34:58.295Z,18.10
2022-11-10T14:37:28.627Z,17.80
2022-11-10T14:40:00.221Z,17.70
2022-11-10T14:42:31.000Z,17.60
2022-11-10T14:45:19.634Z,17.60
2022-11-10T14:48:00.584Z,17.30
2022-11-10T14:50:35.203Z,17.00
2022-11-10T14:53:23.968Z,17.00
2022-11-10T14:55:54.631Z,17.00
2022-11-10T14:58:31.992Z,16.90
2022-11-10T15:00:59.450Z,16.80
2022-11-10T15:03:43.105Z,16.70
2022-11-10T15:06:12.646Z,16.50
2022-11-10T15:08:40.890Z,16.50
2022-11-10T15:11:28.094Z,16.50
2022-11-10T15:13:54.779Z,16.60
2022-11-10T15:16:25.359Z,16.60
2022-11-10T15:18:53.800Z,16.60
2022-11-10T15:21:30.358Z,16.60
2022-11-10T15:24:01.290Z,16.50
2022-11-10T15:26:31.992Z,16.50
2022-11-10T15:28:58.850Z,16.30
2022-11-10T15:31:28.150Z,16.30
2022-11-10T15:34:00.636Z,16.20
2022-11-10T15:36:36.072Z,16.00
2022-11-10T15:39:16.756Z,15.90
2022-11-10T15:41:48.297Z,15.90
2022-11-10T15:44:17.717Z,15.90
2022-11-10T15:46:44.994Z,15.90
2022-11-10T15:49:21.137Z,15.80
2022-11-10T15:51:48.943Z,15.80
2022-11-10T15:54:18.895Z,15.80
2022-11-10T15:56:45.589Z,15.60
2022-11-10T15:59:12.271Z,15.70
2022-11-10T16:01:39.243Z,15.60
2022-11-10T16:04:09.698Z,15.60
2022-11-10T16:06:37.343Z,15.60
2022-11-10T16:09:04.579Z,15.70
2022-11-10T16:11:32.167Z,15.60
2022-11-10T16:14:00.338Z,15.60
2022-11-10T16:16:27.164Z,15.50
2022-11-10T16:18:53.839Z,15.60
2022-11-10T16:21:25.382Z,15.60
2022-11-10T16:23:52.913Z,15.50
2022-11-10T16:26:25.434Z,15.40
2022-11-10T16:28:52.202Z,15.50
2022-11-10T16:31:21.941Z,15.50
2022-11-10T16:33:49.591Z,15.40
2022-11-10T16:36:28.906Z,15.50
2022-11-10T16:38:56.654Z,15.50
2022-11-10T16:41:23.687Z,15.60
2022-11-10T16:43:50.750Z,15.60
2022-11-10T16:46:26.450Z,15.50
2022-11-10T16:48:56.251Z,15.50
2022-11-10T16:51:30.799Z,15.50
2022-11-10T16:53:59.415Z,15.50
2022-11-10T16:56:27.220Z,15.50
2022-11-10T16:58:55.135Z,15.50
2022-11-10T17:01:26.240Z,15.40
2022-11-10T17:03:57.019Z,15.50
2022-11-10T17:06:25.269Z,15.40
2022-11-10T17:08:54.163Z,15.40
2022-11-10T17:11:22.079Z,15.40
2022-11-10T17:13:48.709Z,15.30
2022-11-10T17:16:28.876Z,15.30
2022-11-10T17:18:57.591Z,15.30
2022-11-10T17:21:27.364Z,15.30
2022-11-10T17:23:58.671Z,15.20
2022-11-10T17:26:25.770Z,15.30
2022-11-10T17:28:52.455Z,15.20
2022-11-10T17:31:19.162Z,15.30
2022-11-10T17:33:45.980Z,15.30
2022-11-10T17:36:17.473Z,15.40
2022-11-10T17:38:44.728Z,15.40
2022-11-10T17:41:19.371Z,15.40
2022-11-10T17:43:46.987Z,15.40
2022-11-10T17:46:14.768Z,15.40
2022-11-10T17:48:41.669Z,15.40
2022-11-10T17:51:16.842Z,15.40
2022-11-10T17:53:43.665Z,15.40
2022-11-10T17:56:10.325Z,15.40
2022-11-10T17:58:37.425Z,15.40
2022-11-10T18:01:18.473Z,15.30
2022-11-10T18:03:46.465Z,15.20
2022-11-10T18:06:14.662Z,15.20
2022-11-10T18:08:42.015Z,15.20
2022-11-10T18:11:13.660Z,15.20
2022-11-10T18:13:41.239Z,15.10
2022-11-10T18:16:09.390Z,15.10
2022-11-10T18:18:36.666Z,15.10
2022-11-10T18:21:04.589Z,15.00
2022-11-10T18:23:31.635Z,15.00
2022-11-10T18:26:09.087Z,15.10
2022-11-10T18:28:36.143Z,15.00
2022-11-10T18:31:07.537Z,15.00
2022-11-10T18:33:34.610Z,14.90
2022-11-10T18:36:01.931Z,14.90
2022-11-10T18:38:29.380Z,14.90
2022-11-10T18:40:56.126Z,14.90
2022-11-10T18:43:23.029Z,15.00
2022-11-10T18:45:53.561Z,15.00
2022-11-10T18:48:25.582Z,15.00
2022-11-10T18:50:55.475Z,14.90
2022-11-10T18:53:22.439Z,14.80
2022-11-10T18:55:55.986Z,14.70
2022-11-10T18:58:22.716Z,14.70
2022-11-10T19:00:49.762Z,14.60
2022-11-10T19:03:16.408Z,14.60
2022-11-10T19:05:43.167Z,14.60
2022-11-10T19:08:10.728Z,14.60
2022-11-10T19:10:42.190Z,14.50
2022-11-10T19:13:08.980Z,14.50
2022-11-10T19:15:40.936Z,14.40
2022-11-10T19:18:07.542Z,14.30
2022-11-10T19:20:38.304Z,14.30
2022-11-10T19:23:04.965Z,14.20
2022-11-10T19:25:31.964Z,14.30
2022-11-10T19:27:58.736Z,14.20
2022-11-10T19:30:25.730Z,14.30
2022-11-10T19:32:52.447Z,14.20
2022-11-10T19:35:19.178Z,14.20
2022-11-10T19:37:48.095Z,14.10
2022-11-10T19:40:14.836Z,14.10
2022-11-10T19:42:41.576Z,14.10
2022-11-10T19:45:08.852Z,14.00
2022-11-10T19:47:35.528Z,14.00
2022-11-10T19:50:02.322Z,14.10
2022-11-10T19:52:30.795Z,14.00
2022-11-10T19:54:57.462Z,14.00
2022-11-10T19:57:24.239Z,13.90
2022-11-10T19:59:50.988Z,13.90
2022-11-10T20:02:18.765Z,13.90
2022-11-10T20:05:04.379Z,13.80
2022-11-10T20:07:49.678Z,13.90
2022-11-10T20:10:16.579Z,13.80
2022-11-10T20:12:43.266Z,13.70
2022-11-10T20:15:10.956Z,13.70
2022-11-10T20:17:37.700Z,13.60
2022-11-10T20:20:05.022Z,13.70
2022-11-10T20:22:31.714Z,13.70
2022-11-10T20:24:58.672Z,13.70
2022-11-10T20:27:25.426Z,13.60
2022-11-10T20:29:52.151Z,13.60
2022-11-10T20:32:18.903Z,13.60
2022-11-10T20:34:45.619Z,13.60
2022-11-10T20:37:12.342Z,13.60
2022-11-10T20:39:39.187Z,13.50
2022-11-10T20:42:05.866Z,13.50
2022-11-10T20:44:32.545Z,13.50
2022-11-10T20:46:59.434Z,13.50
2022-11-10T20:49:26.134Z,13.50
2022-11-10T20:51:52.809Z,13.50
2022-11-10T20:54:19.487Z,13.60
2022-11-10T20:56:46.155Z,13.50
2022-11-10T20:59:12.818Z,13.50
2022-11-10T21:01:40.065Z,13.50
2022-11-10T21:04:06.871Z,13.50
2022-11-10T21:06:33.635Z,13.50
2022-11-10T21:09:00.403Z,13.40
2022-11-10T21:11:45.582Z,13.40
2022-11-10T21:14:12.557Z,13.50
2022-11-10T21:16:39.220Z,13.50
2022-11-10T21:19:06.148Z,13.40
2022-11-10T21:21:36.268Z,13.50
2022-11-10T21:24:04.302Z,13.40
2022-11-10T21:26:34.850Z,13.30
2022-11-10T21:29:03.607Z,13.40
2022-11-10T21:31:30.868Z,13.30
2022-11-10T21:33:58.578Z,13.30
2022-11-10T21:36:29.196Z,13.20
2022-11-10T21:38:57.350Z,13.20
2022-11-10T21:41:25.068Z,13.10
2022-11-10T21:43:52.205Z,13.10
2022-11-10T21:46:19.244Z,13.10
2022-11-10T21:48:45.931Z,13.00
2022-11-10T21:51:14.218Z,13.00
2022-11-10T21:53:44.137Z,13.00
2022-11-10T21:56:11.904Z,13.10
2022-11-10T21:58:40.199Z,13.00
2022-11-10T22:01:17.022Z,13.00
2022-11-10T22:03:43.891Z,13.00
2022-11-10T22:06:17.935Z,13.00
2022-11-10T22:08:46.699Z,12.90
2022-11-10T22:11:34.650Z,12.90
2022-11-10T22:14:20.059Z,12.90
2022-11-10T22:17:09.866Z,12.90
2022-11-10T22:19:37.447Z,13.00
2022-11-10T22:22:04.530Z,13.00
2022-11-10T22:24:31.538Z,13.10
2022-11-10T22:27:00.329Z,13.00
2022-11-10T22:29:32.317Z,13.00
2022-11-10T22:32:02.890Z,13.00
2022-11-10T22:34:29.884Z,13.10
2022-11-10T22:36:56.996Z,13.10
2022-11-10T22:39:48.072Z,13.10
2022-11-10T22:42:33.431Z,13.10
2022-11-10T22:45:00.350Z,13.00
2022-11-10T22:47:47.042Z,13.10
2022-11-10T22:50:13.807Z,13.00
2022-11-10T22:52:40.460Z,13.00
2022-11-10T22:55:07.423Z,12.90
2022-11-10T22:57:34.123Z,12.90
2022-11-10T23:00:00.745Z,12.90
2022-11-10T23:02:27.418Z,13.00
2022-11-10T23:04:54.200Z,12.90
2022-11-10T23:07:20.879Z,12.90
2022-11-10T23:09:47.581Z,12.90
2022-11-10T23:12:14.322Z,12.80
2022-11-10T23:14:41.010Z,12.80
2022-11-10T23:17:08.178Z,12.80
2022-11-10T23:19:34.899Z,12.90
2022-11-10T23:22:01.532Z,12.80
2022-11-10T23:24:28.204Z,12.80
2022-11-10T23:26:54.930Z,12.80
2022-11-10T23:29:21.654Z,12.80
2022-11-10T23:31:48.299Z,12.80
2022-11-10T23:34:14.972Z,12.80
2022-11-10T23:36:42.003Z,12.80
2022-11-10T23:39:08.945Z,12.80
2022-11-10T23:41:35.692Z,12.80
2022-11-10T23:44:02.391Z,12.80
2022-11-10T23:46:29.050Z,12.80
2022-11-10T23:48:55.769Z,12.80
2022-11-10T23:51:24.691Z,12.80
2022-11-10T23:53:51.426Z,12.80
2022-11-10T23:56:18.179Z,12.70
2022-11-10T23:58:44.898Z,12.70
